Time;durP1;ratioP1;P1;durP2;ratioP2;P2;SDS_P1;SDS_P2;PMS_P1;PMS_P2;Temp;Humidity;BMP_temperature;BMP_pressure;BME280_temperature;BME280_humidity;BME280_pressure;Samples;Min_cycle;Max_cycle;Signal;HPM_P1;HPM_P2
2023/03/09 00:00:25;;;;;;;48.20;24.33;;;5.70;99.90;;;;;;5071041;28;20028;-73
2023/03/09 00:02:51;;;;;;;54.03;27.13;;;5.70;99.90;;;;;;5070686;28;20508;-74
2023/03/09 00:05:16;;;;;;;;;;;5.60;99.90;;;;;;5071310;28;20081;-73
2023/03/09 00:07:43;;;;;;;38.65;19.80;;;5.60;99.90;;;;;;5053168;28;19908;-74
2023/03/09 00:10:11;;;;;;;36.60;18.27;;;5.60;99.90;;;;;;5052169;28;20027;-74
2023/03/09 00:12:37;;;;;;;35.70;18.83;;;5.50;99.90;;;;;;5052449;28;20473;-74
2023/03/09 00:15:03;;;;;;;;;;;5.50;99.90;;;;;;5070957;28;20587;-73
2023/03/09 00:17:28;;;;;;;28.02;13.77;;;5.60;99.90;;;;;;5070164;28;19911;-73
2023/03/09 00:20:00;;;;;;;;;;;5.60;99.90;;;;;;5070945;28;20016;-74
2023/03/09 00:22:27;;;;;;;26.73;13.75;;;5.60;99.90;;;;;;5052470;28;19943;-74
2023/03/09 00:24:56;;;;;;;23.30;13.68;;;5.60;99.90;;;;;;5052051;28;20068;-73
2023/03/09 00:27:22;;;;;;;23.08;12.20;;;5.70;99.90;;;;;;5052616;28;20024;-74
2023/03/09 00:29:47;;;;;;;;;;;5.70;99.90;;;;;;5052863;28;20038;-73
2023/03/09 00:32:13;;;;;;;18.80;11.23;;;5.70;99.90;;;;;;5052394;28;19908;-72
2023/03/09 00:34:38;;;;;;;;;;;5.70;99.90;;;;;;5052809;28;20040;-74
2023/03/09 00:37:04;;;;;;;26.50;12.25;;;5.60;99.90;;;;;;5051794;28;20372;-74
2023/03/09 00:39:30;;;;;;;;;;;5.60;99.90;;;;;;5070805;28;20085;-74
2023/03/09 00:41:56;;;;;;;18.35;10.70;;;5.60;99.90;;;;;;5070182;28;20411;-74
2023/03/09 00:44:21;;;;;;;;;;;5.60;99.90;;;;;;5070388;28;20551;-73
2023/03/09 00:46:47;;;;;;;17.63;9.20;;;5.60;99.90;;;;;;5052077;28;19908;-73
2023/03/09 00:49:13;;;;;;;;;;;5.60;99.90;;;;;;5052678;28;20059;-73
2023/03/09 00:51:41;;;;;;;23.40;8.18;;;5.60;99.90;;;;;;5069976;28;20431;-73
2023/03/09 00:54:07;;;;;;;12.95;6.88;;;5.50;99.90;;;;;;5051891;28;20036;-73
2023/03/09 00:56:33;;;;;;;;;;;5.50;99.90;;;;;;5052243;28;20032;-73
2023/03/09 00:58:59;;;;;;;12.45;5.60;;;5.50;99.90;;;;;;5051676;28;19954;-74
2023/03/09 01:01:25;;;;;;;;;;;5.50;99.90;;;;;;5070433;28;20081;-73
2023/03/09 01:03:52;;;;;;;11.82;4.80;;;5.50;99.90;;;;;;5051746;28;19955;-73
2023/03/09 01:06:18;;;;;;;12.63;4.43;;;5.60;99.90;;;;;;5051718;28;20497;-73
2023/03/09 01:08:45;;;;;;;9.55;4.47;;;5.60;99.90;;;;;;5051643;28;20040;-73
2023/03/09 01:11:13;;;;;;;11.93;5.15;;;5.60;99.90;;;;;;5051584;28;20581;-73
2023/03/09 01:13:39;;;;;;;8.25;4.47;;;5.50;99.90;;;;;;5051651;28;20067;-73
2023/03/09 01:16:05;;;;;;;;;;;5.50;99.90;;;;;;5052057;28;20033;-73
2023/03/09 01:18:30;;;;;;;12.23;5.30;;;5.50;99.90;;;;;;5051346;28;19908;-73
2023/03/09 01:20:57;;;;;;;;;;;5.50;99.90;;;;;;5069589;28;20115;-73
2023/03/09 01:23:22;;;;;;;17.67;6.90;;;5.40;99.90;;;;;;5068489;28;19904;-72
2023/03/09 01:25:48;;;;;;;;;;;5.40;99.90;;;;;;5051628;28;20032;-73
2023/03/09 01:28:13;;;;;;;11.85;5.97;;;5.40;99.90;;;;;;5069339;28;19908;-73
2023/03/09 01:30:39;;;;;;;;;;;5.40;99.90;;;;;;5069771;28;20028;-73
2023/03/09 01:33:05;;;;;;;10.38;5.22;;;5.50;99.90;;;;;;5068935;28;20285;-71
2023/03/09 01:35:30;;;;;;;;;;;5.50;99.90;;;;;;5051482;28;20032;-73
2023/03/09 01:37:56;;;;;;;19.48;7.22;;;5.50;99.90;;;;;;5051054;28;20030;-72
2023/03/09 01:40:25;;;;;;;15.38;7.10;;;5.50;99.90;;;;;;5051091;28;20580;-73
2023/03/09 01:43:21;;;;;;;27.70;11.43;;;5.60;99.90;;;;;;5050674;28;20032;-71
2023/03/09 01:45:47;;;;;;;25.85;10.52;;;5.60;99.90;;;;;;5030778;28;20060;-73
2023/03/09 01:48:12;;;;;;;;;;;5.60;99.90;;;;;;5031429;28;20119;-74
2023/03/09 01:50:39;;;;;;;32.38;15.38;;;5.60;99.90;;;;;;5030718;28;19909;-74
2023/03/09 01:53:11;;;;;;;45.90;19.23;;;5.70;99.90;;;;;;5030374;28;20120;-72
2023/03/09 01:55:44;;;;;;;54.55;22.98;;;5.70;99.90;;;;;;5047427;28;20029;-72
2023/03/09 01:58:23;;;;;;;37.38;17.77;;;5.70;99.90;;;;;;5048923;28;20108;-74
2023/03/09 02:00:52;;;;;;;18.00;8.90;;;5.70;99.90;;;;;;5048667;28;20064;-74
2023/03/09 02:03:31;;;;;;;17.20;8.48;;;5.70;99.90;;;;;;5030807;28;20068;-73
2023/03/09 02:06:02;;;;;;;15.70;8.20;;;5.70;99.90;;;;;;5048720;28;20560;-74
2023/03/09 02:08:29;;;;;;;20.98;9.38;;;5.70;99.90;;;;;;5048447;28;20032;-73
2023/03/09 02:11:03;;;;;;;39.85;20.17;;;5.70;99.90;;;;;;5048460;28;20025;-73
2023/03/09 02:13:41;;;;;;;21.38;10.45;;;5.70;99.90;;;;;;5048596;28;20438;-73
2023/03/09 02:16:07;;;;;;;16.80;7.82;;;5.70;99.90;;;;;;5048370;28;20040;-74
2023/03/09 02:18:33;;;;;;;;;;;5.70;99.90;;;;;;5048868;28;20037;-74
2023/03/09 02:21:42;;;;;;;11.27;5.45;;;5.80;99.90;;;;;;5030248;28;19908;-74
2023/03/09 02:24:26;;;;;;;13.55;5.72;;;5.90;99.90;;;;;;5047027;28;20455;-75
2023/03/09 02:26:56;;;;;;;16.63;7.05;;;5.80;99.90;;;;;;5030494;28;20117;-73
2023/03/09 02:29:23;;;;;;;15.55;6.45;;;5.80;99.90;;;;;;5047974;28;20087;-74
2023/03/09 02:31:49;;;;;;;12.18;5.07;;;5.70;99.90;;;;;;5030417;28;20046;-74
2023/03/09 02:34:15;;;;;;;;;;;5.70;99.90;;;;;;5030406;28;20033;-74
2023/03/09 02:36:40;;;;;;;11.82;5.95;;;5.70;99.90;;;;;;5030354;28;20278;-73
2023/03/09 02:39:10;;;;;;;;;;;5.50;99.90;;;;;;5048518;28;20055;-74
2023/03/09 02:41:36;;;;;;;11.90;5.55;;;5.50;99.90;;;;;;5030186;28;20483;-73
2023/03/09 02:44:01;;;;;;;;;;;5.40;99.90;;;;;;5055397;28;20063;-73
2023/03/09 02:46:27;;;;;;;12.27;5.93;;;5.40;99.90;;;;;;5050261;28;19916;-73
2023/03/09 02:48:54;;;;;;;;;;;5.30;99.90;;;;;;5050502;28;20028;-74
2023/03/09 02:51:19;;;;;;;14.50;7.15;;;5.30;99.90;;;;;;5049599;28;19915;-74
2023/03/09 02:53:45;;;;;;;;;;;5.20;99.90;;;;;;5050135;28;20037;-74
2023/03/09 02:56:10;;;;;;;13.20;5.15;;;5.20;99.90;;;;;;5049805;28;20046;-74
2023/03/09 02:58:36;;;;;;;10.00;5.05;;;5.10;99.90;;;;;;5048182;28;20485;-72
2023/03/09 03:01:02;;;;;;;;;;;5.00;99.90;;;;;;5066106;28;20609;-73
2023/03/09 03:03:28;;;;;;;7.60;4.05;;;4.90;99.90;;;;;;5065901;28;19908;-74
2023/03/09 03:05:53;;;;;;;;;;;4.90;99.90;;;;;;5066018;28;20028;-74
2023/03/09 03:08:19;;;;;;;8.82;3.80;;;4.80;99.90;;;;;;5047391;28;19908;-74
2023/03/09 03:10:44;;;;;;;;;;;4.80;99.90;;;;;;5047899;28;20562;-74
2023/03/09 03:13:10;;;;;;;10.18;5.30;;;4.70;99.90;;;;;;5066026;28;19928;-72
2023/03/09 03:15:36;;;;;;;;;;;4.70;99.90;;;;;;5066427;28;20552;-72
2023/03/09 03:18:02;;;;;;;8.10;3.90;;;4.70;99.90;;;;;;5066012;28;19916;-73
2023/03/09 03:20:27;;;;;;;;;;;4.70;99.90;;;;;;5066777;28;20035;-73
2023/03/09 03:22:53;;;;;;;13.40;5.80;;;4.60;99.90;;;;;;5049226;28;19908;-74
2023/03/09 03:25:19;;;;;;;7.85;5.03;;;4.60;99.90;;;;;;5049885;28;20495;-73
2023/03/09 03:27:45;;;;;;;12.35;5.45;;;4.60;99.90;;;;;;5050234;28;20029;-74
2023/03/09 03:30:12;;;;;;;;;;;4.60;99.90;;;;;;5068229;28;20043;-74
2023/03/09 03:32:38;;;;;;;9.82;5.22;;;4.50;99.90;;;;;;5049779;28;19908;-74
2023/03/09 03:35:03;;;;;;;;;;;4.50;99.90;;;;;;5049954;28;20048;-74
2023/03/09 03:37:30;;;;;;;36.55;16.27;;;4.40;99.90;;;;;;5049705;28;19908;-74
2023/03/09 03:39:56;;;;;;;34.92;17.55;;;4.40;99.90;;;;;;5049663;28;20109;-74
2023/03/09 03:42:21;;;;;;;;;;;4.50;99.90;;;;;;5050063;28;20056;-74
2023/03/09 03:44:47;;;;;;;29.88;14.45;;;4.40;99.90;;;;;;5067329;28;19920;-73
2023/03/09 03:47:13;;;;;;;;;;;4.40;99.90;;;;;;5052762;28;20444;-74
2023/03/09 03:49:38;;;;;;;35.25;18.30;;;4.30;99.90;;;;;;5070860;28;20364;-74
2023/03/09 03:52:04;;;;;;;;;;;4.30;99.90;;;;;;5071514;28;20443;-73
2023/03/09 03:54:30;;;;;;;22.30;10.60;;;4.30;99.90;;;;;;5052964;28;20304;-74
2023/03/09 03:56:55;;;;;;;;;;;4.20;99.90;;;;;;5071293;28;20021;-74
2023/03/09 03:59:21;;;;;;;23.50;12.68;;;4.30;99.90;;;;;;5070963;28;20296;-74
2023/03/09 04:01:47;;;;;;;;;;;4.30;99.90;;;;;;5071414;28;20122;-74
2023/03/09 04:04:12;;;;;;;27.63;13.35;;;4.20;99.90;;;;;;5070856;28;19936;-75
2023/03/09 04:06:42;;;;;;;;;;;4.20;99.90;;;;;;5053042;28;20029;-74
2023/03/09 04:09:08;;;;;;;41.05;18.77;;;4.20;99.90;;;;;;5052677;28;19908;-75
2023/03/09 04:11:34;;;;;;;30.73;15.50;;;4.20;99.90;;;;;;5052774;28;20039;-75
2023/03/09 04:14:01;;;;;;;;;;;4.20;99.90;;;;;;5071105;28;20029;-74
2023/03/09 04:16:26;;;;;;;32.27;12.67;;;4.20;99.90;;;;;;5070613;28;19947;-74
2023/03/09 04:18:52;;;;;;;;;;;4.20;99.90;;;;;;5052785;28;20060;-74
2023/03/09 04:21:18;;;;;;;11.80;4.30;;;4.50;99.90;;;;;;5052364;28;19915;-76
2023/03/09 04:23:43;;;;;;;;;;;4.60;99.90;;;;;;5053096;28;20040;-75
2023/03/09 04:26:10;;;;;;;15.73;5.93;;;4.70;99.90;;;;;;5052182;28;19915;-74
2023/03/09 04:28:35;;;;;;;10.68;4.50;;;4.70;99.90;;;;;;5052371;28;20070;-75
2023/03/09 04:31:01;;;;;;;;;;;4.70;99.90;;;;;;5052599;28;20020;-75
2023/03/09 04:33:27;;;;;;;11.45;6.40;;;4.80;99.90;;;;;;5052209;28;19908;-73
2023/03/09 04:35:52;;;;;;;;;;;4.80;99.90;;;;;;5070661;28;20847;-74
2023/03/09 04:38:18;;;;;;;12.23;6.90;;;4.80;99.90;;;;;;5069859;28;19915;-73
2023/03/09 04:40:43;;;;;;;;;;;4.80;99.90;;;;;;5052611;28;20063;-73
2023/03/09 04:43:09;;;;;;;25.85;13.65;;;4.80;99.90;;;;;;5051670;28;20350;-74
2023/03/09 04:45:35;;;;;;;;;;;4.80;99.90;;;;;;5052233;28;20509;-73
2023/03/09 04:48:01;;;;;;;24.83;13.20;;;4.80;99.90;;;;;;5052330;28;19904;-73
2023/03/09 04:50:27;;;;;;;25.95;13.57;;;4.90;99.90;;;;;;5069852;28;20040;-73
2023/03/09 04:52:55;;;;;;;;;;;4.90;99.90;;;;;;5052443;28;20033;-72
2023/03/09 04:55:21;;;;;;;17.83;10.57;;;5.00;99.90;;;;;;5069726;28;19962;-73
2023/03/09 04:57:46;;;;;;;;;;;5.00;99.90;;;;;;5052134;28;20056;-73
2023/03/09 05:00:13;;;;;;;22.90;12.85;;;5.10;99.90;;;;;;5051913;28;19908;-73
2023/03/09 05:02:40;;;;;;;28.45;13.02;;;5.20;99.90;;;;;;5051832;28;20067;-73
2023/03/09 05:05:08;;;;;;;23.23;11.45;;;5.20;99.90;;;;;;5069510;28;20033;-73
2023/03/09 05:07:34;;;;;;;22.73;11.85;;;5.30;99.90;;;;;;5069500;28;20035;-71
2023/03/09 05:09:59;;;;;;;;;;;5.30;99.90;;;;;;5052608;28;20437;-73
2023/03/09 05:12:31;;;;;;;29.02;12.65;;;5.40;99.90;;;;;;5051414;28;19916;-73
2023/03/09 05:15:00;;;;;;;22.45;10.85;;;5.40;99.90;;;;;;5069318;28;20680;-73
2023/03/09 05:17:26;;;;;;;24.38;11.20;;;5.50;99.90;;;;;;5051717;28;20190;-73
2023/03/09 05:19:52;;;;;;;26.38;13.93;;;5.40;99.90;;;;;;5051299;28;20105;-73
2023/03/09 05:22:18;;;;;;;;;;;5.40;99.90;;;;;;5052124;28;20493;-75
2023/03/09 05:24:43;;;;;;;31.83;15.35;;;5.40;99.90;;;;;;5069250;28;19919;-73
2023/03/09 05:27:09;;;;;;;;;;;5.40;99.90;;;;;;5051913;28;20032;-73
2023/03/09 05:29:35;;;;;;;26.02;10.40;;;5.30;99.90;;;;;;5051184;28;20369;-73
2023/03/09 05:32:01;;;;;;;;;;;5.30;99.90;;;;;;5051868;28;20031;-72
2023/03/09 05:34:27;;;;;;;21.63;8.95;;;5.40;99.90;;;;;;5051273;28;20467;-73
2023/03/09 05:36:52;;;;;;;;;;;5.40;99.90;;;;;;5069405;28;20111;-73
2023/03/09 05:39:18;;;;;;;21.33;10.07;;;5.40;99.90;;;;;;5050795;28;19958;-73
2023/03/09 05:41:43;;;;;;;35.58;12.80;;;5.50;99.90;;;;;;5068804;28;20037;-73
2023/03/09 05:44:09;;;;;;;;;;;5.50;99.90;;;;;;5069072;28;20102;-73
2023/03/09 05:46:35;;;;;;;27.98;10.30;;;5.70;99.90;;;;;;5051122;28;19912;-73
2023/03/09 05:49:00;;;;;;;;;;;5.80;99.90;;;;;;5051071;28;20353;-73
2023/03/09 05:51:26;;;;;;;25.85;11.60;;;5.90;99.90;;;;;;5068671;28;19916;-74
2023/03/09 05:53:51;;;;;;;;;;;6.00;99.90;;;;;;5069215;28;20029;-73
2023/03/09 05:56:17;;;;;;;27.70;14.57;;;6.10;99.90;;;;;;5068696;28;19920;-73
2023/03/09 05:58:43;;;;;;;;;;;6.10;99.90;;;;;;5069228;28;20029;-73
2023/03/09 06:01:23;;;;;;;41.35;21.70;;;6.30;99.90;;;;;;5068532;28;19999;-75
2023/03/09 06:03:48;;;;;;;47.50;22.88;;;6.30;99.90;;;;;;5050538;28;20032;-75
2023/03/09 06:06:14;;;;;;;;;;;6.40;99.90;;;;;;5069074;28;20035;-73
2023/03/09 06:08:40;;;;;;;48.00;22.10;;;6.50;99.90;;;;;;5068186;28;19908;-75
2023/03/09 06:11:06;;;;;;;;;;;6.60;99.90;;;;;;5068913;28;20020;-72
2023/03/09 06:13:31;;;;;;;51.33;27.02;;;6.60;99.90;;;;;;5050531;28;19905;-75
2023/03/09 06:15:57;;;;;;;39.92;20.75;;;6.60;99.90;;;;;;5068344;28;20489;-75
2023/03/09 06:18:22;;;;;;;;;;;6.70;99.90;;;;;;5050863;28;20150;-73
2023/03/09 06:20:49;;;;;;;36.72;17.42;;;6.80;99.90;;;;;;5068163;28;19905;-73
2023/03/09 06:23:14;;;;;;;44.92;21.48;;;6.80;99.90;;;;;;5050502;28;20032;-75
2023/03/09 06:25:40;;;;;;;;;;;6.80;99.90;;;;;;5068830;28;20035;-72
2023/03/09 06:28:06;;;;;;;42.50;21.33;;;6.90;99.90;;;;;;5050142;28;20250;-75
2023/03/09 06:30:31;;;;;;;;;;;7.00;99.90;;;;;;5050490;28;20032;-74
2023/03/09 06:32:57;;;;;;;45.20;21.63;;;7.00;99.90;;;;;;5068401;28;20258;-75
2023/03/09 06:35:23;;;;;;;;;;;7.20;99.90;;;;;;5068905;28;20508;-73
2023/03/09 06:37:49;;;;;;;39.38;22.85;;;7.20;99.90;;;;;;5068063;28;19956;-75
2023/03/09 06:40:14;;;;;;;;;;;7.40;99.90;;;;;;5050711;28;20051;-75
2023/03/09 06:42:40;;;;;;;43.80;19.88;;;7.50;99.90;;;;;;5068236;28;20019;-73
2023/03/09 06:45:06;;;;;;;;;;;7.50;99.90;;;;;;5068538;28;20055;-75
2023/03/09 06:47:32;;;;;;;46.13;23.23;;;7.60;99.90;;;;;;5050162;28;19915;-75
2023/03/09 06:49:58;;;;;;;;;;;7.70;99.90;;;;;;5068700;28;20401;-75
2023/03/09 06:52:25;;;;;;;91.15;38.60;;;7.80;99.90;;;;;;5050094;28;19932;-76
2023/03/09 06:54:51;;;;;;;52.60;27.05;;;7.80;99.90;;;;;;5067953;28;20064;-74
2023/03/09 06:57:17;;;;;;;51.50;26.65;;;8.00;99.90;;;;;;5067862;28;20031;-75
2023/03/09 06:59:43;;;;;;;;;;;8.10;99.90;;;;;;5050199;28;20021;-75
2023/03/09 07:02:12;;;;;;;66.68;34.30;;;8.30;99.90;;;;;;5067743;28;19950;-75
2023/03/09 07:04:38;;;;;;;53.97;26.88;;;8.40;99.90;;;;;;5068301;28;20035;-76
2023/03/09 07:07:04;;;;;;;;;;;8.70;99.90;;;;;;5067958;28;20045;-75
2023/03/09 07:09:31;;;;;;;34.15;21.83;;;9.00;99.90;;;;;;5068184;28;20418;-75
2023/03/09 07:11:58;;;;;;;32.83;19.15;;;9.40;99.90;;;;;;5050087;28;20048;-75
2023/03/09 07:14:25;;;;;;;40.28;20.52;;;9.70;99.90;;;;;;5067877;28;20037;-75
2023/03/09 07:16:55;;;;;;;34.15;15.70;;;9.80;99.90;;;;;;5067966;28;20033;-75
2023/03/09 07:19:21;;;;;;;26.27;13.75;;;9.80;99.90;;;;;;5049847;28;20505;-75
2023/03/09 07:21:47;;;;;;;24.58;13.50;;;9.70;99.90;;;;;;5070208;28;20024;-75
2023/03/09 07:24:13;;;;;;;;;;;9.70;99.90;;;;;;5053879;28;20028;-75
2023/03/09 07:26:38;;;;;;;19.70;11.10;;;9.70;99.90;;;;;;5053717;28;19912;-75
2023/03/09 07:29:04;;;;;;;;;;;9.70;99.90;;;;;;5071933;28;20372;-75
2023/03/09 07:31:30;;;;;;;20.30;11.05;;;9.70;99.90;;;;;;5053574;28;20295;-76
2023/03/09 07:33:56;;;;;;;;;;;9.70;99.90;;;;;;5053801;28;20412;-75
2023/03/09 07:36:21;;;;;;;17.40;6.15;;;9.80;99.90;;;;;;5053125;28;19924;-75
2023/03/09 07:38:48;;;;;;;;;;;9.90;99.90;;;;;;5054115;28;20028;-75
2023/03/09 07:41:14;;;;;;;18.38;5.97;;;9.90;99.90;;;;;;5071463;28;19998;-75
2023/03/09 07:43:43;;;;;;;15.98;7.25;;;10.10;99.90;;;;;;5071010;28;20032;-75
2023/03/09 07:46:11;;;;;;;14.73;7.80;;;10.10;99.90;;;;;;5053084;28;20386;-75
2023/03/09 07:48:37;;;;;;;19.02;10.57;;;10.00;99.90;;;;;;5053020;28;20021;-75
2023/03/09 07:51:04;;;;;;;16.42;5.38;;;10.00;99.90;;;;;;5070827;28;20060;-76
2023/03/09 07:53:31;;;;;;;13.02;6.20;;;10.00;99.90;;;;;;5052927;28;20082;-75
2023/03/09 07:55:58;;;;;;;8.52;5.03;;;10.00;99.90;;;;;;5070848;28;20042;-75
2023/03/09 07:58:24;;;;;;;12.07;4.13;;;10.00;99.90;;;;;;5071044;28;20112;-74
2023/03/09 08:00:50;;;;;;;12.65;4.40;;;10.10;99.90;;;;;;5052889;28;20033;-75
2023/03/09 08:03:16;;;;;;;;;;;10.10;99.90;;;;;;5071449;28;20020;-76
2023/03/09 08:05:42;;;;;;;8.43;3.03;;;10.20;99.90;;;;;;5052842;28;20339;-75
2023/03/09 08:08:07;;;;;;;;;;;10.20;99.90;;;;;;5053345;28;20617;-75
2023/03/09 08:10:34;;;;;;;8.23;3.60;;;10.30;99.90;;;;;;5052909;28;19939;-75
2023/03/09 08:13:00;;;;;;;9.63;4.57;;;10.40;99.90;;;;;;5070663;28;20100;-75
2023/03/09 08:15:26;;;;;;;;;;;10.50;99.90;;;;;;5070834;28;20565;-75
2023/03/09 08:17:51;;;;;;;11.27;2.72;;;10.50;99.90;;;;;;5052771;28;20407;-76
2023/03/09 08:20:17;;;;;;;;;;;10.60;99.90;;;;;;5070766;28;20117;-75
2023/03/09 08:22:43;;;;;;;6.05;3.05;;;10.60;99.90;;;;;;5070690;28;19908;-75
2023/03/09 08:25:08;;;;;;;;;;;10.70;99.90;;;;;;5053049;28;20060;-75
2023/03/09 08:27:43;;;;;;;13.05;3.45;;;10.80;99.90;;;;;;5070532;28;19912;-76
2023/03/09 08:30:10;;;;;;;5.63;2.53;;;10.90;99.90;;;;;;5052522;28;20025;-75
2023/03/09 08:32:36;;;;;;;5.57;2.60;;;10.90;99.90;;;;;;5069180;28;20020;-75
2023/03/09 08:35:02;;;;;;;;;;;11.00;99.90;;;;;;5070663;28;20075;-76
2023/03/09 08:37:27;;;;;;;8.35;2.85;;;11.10;99.90;;;;;;5070510;28;19905;-76
2023/03/09 08:39:53;;;;;;;;;;;11.20;99.90;;;;;;5070648;28;20028;-75
2023/03/09 08:42:19;;;;;;;9.05;2.70;;;11.20;99.90;;;;;;5052091;28;19912;-75
2023/03/09 08:44:44;;;;;;;;;;;11.20;99.90;;;;;;5052671;28;20052;-73
2023/03/09 08:47:10;;;;;;;8.80;2.92;;;11.20;99.90;;;;;;5069709;28;19943;-75
2023/03/09 08:49:37;;;;;;;;;;;11.20;99.90;;;;;;5052571;28;20067;-75
2023/03/09 08:52:03;;;;;;;8.35;3.20;;;11.30;99.90;;;;;;5051845;28;20391;-75
2023/03/09 08:54:28;;;;;;;;;;;11.40;99.90;;;;;;5070060;28;20032;-75
2023/03/09 08:56:54;;;;;;;6.90;2.72;;;11.40;99.90;;;;;;5069622;28;19912;-76
2023/03/09 08:59:20;;;;;;;;;;;11.50;99.90;;;;;;5052676;28;20025;-74
2023/03/09 09:01:45;;;;;;;7.68;3.00;;;11.50;99.90;;;;;;5070026;28;20029;-74
2023/03/09 09:04:11;;;;;;;;;;;11.60;99.90;;;;;;5052307;28;20067;-72
2023/03/09 09:06:37;;;;;;;8.60;2.75;;;11.60;99.90;;;;;;5069973;28;20391;-73
2023/03/09 09:09:03;;;;;;;8.35;3.17;;;11.60;99.90;;;;;;5051779;28;20055;-74
2023/03/09 09:11:29;;;;;;;;;;;11.70;99.90;;;;;;5070147;28;20078;-73
2023/03/09 09:13:56;;;;;;;12.00;4.13;;;11.90;99.90;;;;;;5051636;28;19908;-75
2023/03/09 09:16:22;;;;;;;7.00;3.20;;;12.00;99.90;;;;;;5051461;28;20045;-76
2023/03/09 09:18:47;;;;;;;;;;;12.10;99.90;;;;;;5070041;28;20021;-76
2023/03/09 09:21:17;;;;;;;6.82;2.97;;;12.30;99.90;;;;;;5069242;28;19965;-76
2023/03/09 09:23:44;;;;;;;12.98;3.88;;;12.30;99.90;;;;;;5051408;28;20613;-76
2023/03/09 09:26:11;;;;;;;12.25;3.80;;;12.30;99.90;;;;;;5051396;28;20029;-75
2023/03/09 09:28:37;;;;;;;7.82;3.17;;;12.10;99.90;;;;;;5051465;28;20025;-73
2023/03/09 09:31:03;;;;;;;;;;;12.00;99.90;;;;;;5051559;28;20736;-75
2023/03/09 09:33:31;;;;;;;7.75;3.20;;;11.90;99.90;;;;;;5051213;28;19995;-73
2023/03/09 09:36:02;;;;;;;10.27;3.88;;;11.80;99.90;;;;;;5069208;28;20089;-74
2023/03/09 09:38:29;;;;;;;16.42;4.50;;;11.80;99.90;;;;;;5051261;28;20118;-73
2023/03/09 09:40:56;;;;;;;17.23;4.30;;;11.70;99.90;;;;;;5068987;28;20029;-73
2023/03/09 09:43:23;;;;;;;11.30;4.47;;;11.60;99.90;;;;;;5050165;28;20412;-73
2023/03/09 09:45:51;;;;;;;14.00;4.70;;;11.60;99.90;;;;;;5051124;28;20044;-73
2023/03/09 09:48:18;;;;;;;10.38;4.75;;;11.60;99.90;;;;;;5050772;28;20169;-74
2023/03/09 09:51:08;;;;;;;15.95;5.45;;;11.50;99.90;;;;;;5051283;28;20036;-74
2023/03/09 09:53:53;;;;;;;13.05;5.45;;;11.60;99.90;;;;;;5068826;28;20029;-73
2023/03/09 09:56:24;;;;;;;11.70;4.95;;;11.60;99.90;;;;;;5050622;28;20059;-74
2023/03/09 09:59:13;;;;;;;11.98;5.18;;;11.70;99.90;;;;;;5068632;28;20017;-73
2023/03/09 10:01:46;;;;;;;11.73;5.25;;;11.80;99.90;;;;;;5068160;28;20115;-73
2023/03/09 10:04:20;;;;;;;9.30;4.65;;;12.00;99.90;;;;;;5068591;28;20028;-74
2023/03/09 10:06:48;;;;;;;12.07;4.35;;;12.40;99.90;;;;;;5050018;28;20571;-76
2023/03/09 10:09:13;;;;;;;8.35;4.10;;;12.80;99.90;;;;;;5068232;28;20090;-75
2023/03/09 10:12:08;;;;;;;;;;;13.30;99.90;;;;;;5068828;28;20028;-75
2023/03/09 10:14:56;;;;;;;14.98;8.43;;;13.80;99.90;;;;;;5048360;28;19935;-75
2023/03/09 10:17:42;;;;;;;12.68;6.07;;;14.50;99.90;;;;;;5068324;28;20551;-76
2023/03/09 10:20:27;;;;;;;10.63;6.85;;;15.00;99.90;;;;;;5050688;28;20489;-76
2023/03/09 10:22:55;;;;;;;8.55;4.00;;;15.40;99.90;;;;;;5050190;28;20039;-76
2023/03/09 10:25:22;;;;;;;6.20;3.15;;;15.70;99.90;;;;;;5068489;28;20063;-73
2023/03/09 10:28:02;;;;;;;10.57;3.85;;;15.90;99.90;;;;;;5068346;28;20032;-72
2023/03/09 10:30:39;;;;;;;7.38;3.10;;;16.30;99.90;;;;;;5050264;28;20036;-72
2023/03/09 10:33:08;;;;;;;10.07;3.30;;;16.70;99.90;;;;;;5068483;28;20032;-72
2023/03/09 10:36:00;;;;;;;13.18;2.45;;;16.60;99.90;;;;;;5050192;28;20750;-73
2023/03/09 10:38:26;;;;;;;8.35;2.90;;;16.40;99.70;;;;;;5068264;28;20032;-73
2023/03/09 10:40:54;;;;;;;8.90;3.15;;;15.90;99.90;;;;;;5068173;28;20093;-73
2023/03/09 10:43:31;;;;;;;11.88;2.90;;;15.70;99.90;;;;;;5067739;28;20062;-73
2023/03/09 10:46:16;;;;;;;10.68;2.80;;;15.60;99.90;;;;;;5050197;28;20405;-75
2023/03/09 10:48:44;;;;;;;9.98;3.08;;;15.30;99.90;;;;;;5050144;28;20024;-75
2023/03/09 10:51:30;;;;;;;7.63;3.10;;;15.10;99.90;;;;;;5049931;28;20021;-77
2023/03/09 10:53:57;;;;;;;13.88;3.50;;;14.90;99.90;;;;;;5068296;28;20031;-76
2023/03/09 10:56:28;;;;;;;8.02;2.30;;;14.70;99.90;;;;;;5071554;28;20036;-76
2023/03/09 10:59:06;;;;;;;9.40;3.08;;;14.40;99.90;;;;;;5053767;28;20031;-76
2023/03/09 11:01:37;;;;;;;10.60;2.55;;;14.20;99.90;;;;;;5072056;28;20028;-75
2023/03/09 11:04:23;;;;;;;10.32;2.67;;;14.10;99.90;;;;;;5072208;28;20401;-76
2023/03/09 11:06:51;;;;;;;9.60;3.77;;;14.10;99.90;;;;;;5058127;28;20063;-75
2023/03/09 11:09:43;;;;;;;8.43;3.25;;;14.20;99.90;;;;;;5054257;28;20024;-76
2023/03/09 11:12:20;;;;;;;10.15;3.22;;;14.40;99.90;;;;;;5044668;28;20420;-76
2023/03/09 11:14:58;;;;;;;7.05;2.60;;;14.60;99.90;;;;;;5053747;28;20123;-75
2023/03/09 11:17:30;;;;;;;9.20;3.20;;;14.80;99.90;;;;;;5053854;28;20051;-75
2023/03/09 11:20:20;;;;;;;7.15;2.78;;;15.00;99.90;;;;;;5053946;28;20036;-76
2023/03/09 11:22:50;;;;;;;8.52;2.45;;;15.20;99.90;;;;;;5053558;28;20028;-76
2023/03/09 11:25:54;;;;;;;8.20;3.30;;;15.40;99.90;;;;;;5053889;28;20182;-76
2023/03/09 11:28:54;;;;;;;8.32;2.63;;;15.50;99.90;;;;;;5071494;28;20064;-73
2023/03/09 11:31:23;;;;;;;5.68;2.40;;;15.60;99.90;;;;;;5053502;28;20024;-75
2023/03/09 11:33:52;;;;;;;8.77;2.38;;;15.60;99.90;;;;;;5071318;28;20033;-76
2023/03/09 11:36:28;;;;;;;7.93;2.33;;;15.70;99.90;;;;;;5071280;28;20059;-76
2023/03/09 11:38:54;;;;;;;8.60;2.95;;;15.60;99.90;;;;;;5070837;28;20090;-75
2023/03/09 11:41:41;;;;;;;7.50;2.50;;;15.60;99.90;;;;;;5070837;28;20032;-75
2023/03/09 11:44:20;;;;;;;9.82;2.78;;;15.50;99.90;;;;;;5071106;28;20063;-76
2023/03/09 11:46:47;;;;;;;7.35;3.20;;;15.30;99.90;;;;;;5052913;28;20044;-75
2023/03/09 11:49:20;;;;;;;8.60;3.53;;;15.20;99.90;;;;;;5071048;28;20028;-75
2023/03/09 11:51:49;;;;;;;8.55;3.08;;;15.10;99.90;;;;;;5071003;28;20039;-76
2023/03/09 11:54:19;;;;;;;9.27;3.03;;;15.00;99.90;;;;;;5071107;28;20036;-76
2023/03/09 11:56:46;;;;;;;4.57;2.55;;;15.10;99.90;;;;;;5053175;28;20063;-76
2023/03/09 11:59:41;;;;;;;5.55;2.53;;;15.30;99.90;;;;;;5071122;28;20071;-76
2023/03/09 12:02:25;;;;;;;9.63;3.00;;;15.50;99.90;;;;;;5071089;28;20123;-76
2023/03/09 12:04:53;;;;;;;4.60;2.80;;;15.80;99.90;;;;;;5070870;28;20017;-75
2023/03/09 12:07:41;;;;;;;11.25;3.33;;;15.80;99.90;;;;;;5069810;28;20024;-76
2023/03/09 12:10:31;;;;;;;13.10;3.50;;;15.80;99.40;;;;;;5052811;28;20089;-76
2023/03/09 12:13:03;;;;;;;7.93;3.08;;;15.70;99.80;;;;;;5052641;28;20036;-76
2023/03/09 12:15:39;;;;;;;9.20;3.13;;;15.70;98.50;;;;;;5070676;28;20041;-76
2023/03/09 12:18:14;;;;;;;8.40;2.72;;;15.60;99.20;;;;;;5052636;28;20162;-76
2023/03/09 12:20:48;;;;;;;5.97;2.63;;;15.50;99.70;;;;;;5052811;28;20032;-75
2023/03/09 12:23:35;;;;;;;6.65;2.42;;;15.40;99.90;;;;;;5052744;28;20093;-75
2023/03/09 12:26:33;;;;;;;10.52;3.03;;;15.40;99.90;;;;;;5070493;28;20048;-75
2023/03/09 12:29:18;;;;;;;6.65;2.38;;;15.30;99.90;;;;;;5070336;28;20484;-76
2023/03/09 12:31:44;;;;;;;7.97;2.78;;;15.30;99.90;;;;;;5070377;28;20028;-76
2023/03/09 12:34:10;;;;;;;8.02;2.40;;;15.50;99.90;;;;;;5052444;28;20028;-76
2023/03/09 12:36:40;;;;;;;9.75;3.25;;;15.60;99.90;;;;;;5052299;28;20405;-75
2023/03/09 12:39:31;;;;;;;7.72;2.60;;;15.70;98.60;;;;;;5052059;28;20028;-75
2023/03/09 12:42:01;;;;;;;8.75;2.35;;;15.70;98.10;;;;;;5070295;28;20377;-75
2023/03/09 12:44:46;;;;;;;6.25;2.60;;;15.50;98.50;;;;;;5052024;28;20101;-77
2023/03/09 12:47:39;;;;;;;14.00;3.10;;;15.40;99.70;;;;;;5052332;28;20086;-75
2023/03/09 12:50:32;;;;;;;8.00;2.60;;;15.40;99.90;;;;;;5070123;28;20560;-76
2023/03/09 12:53:16;;;;;;;9.57;4.95;;;15.40;99.90;;;;;;5021231;28;20032;-76
2023/03/09 12:55:45;;;;;;;5.63;2.35;;;15.50;99.90;;;;;;5070029;28;20441;-75
2023/03/09 12:58:22;;;;;;;7.78;2.50;;;15.60;96.70;;;;;;5069857;28;20103;-75
2023/03/09 13:01:00;;;;;;;6.50;1.80;;;15.60;97.60;;;;;;5051674;28;20409;-75
2023/03/09 13:03:31;;;;;;;4.53;1.73;;;15.70;94.20;;;;;;5069960;28;20174;-76
2023/03/09 13:06:35;;;;;;;5.13;2.20;;;15.70;93.20;;;;;;5051821;28;20362;-75
2023/03/09 13:09:04;;;;;;;9.80;2.22;;;15.50;93.90;;;;;;5047380;28;20760;-76
2023/03/09 13:11:32;;;;;;;3.33;1.75;;;15.30;94.40;;;;;;5051565;28;20764;-76
2023/03/09 13:14:00;;;;;;;5.68;1.25;;;15.30;94.10;;;;;;5069648;28;20021;-75
2023/03/09 13:16:36;;;;;;;3.55;1.33;;;15.20;93.30;;;;;;5051455;28;20036;-75
2023/03/09 13:19:15;;;;;;;4.72;1.63;;;15.10;92.20;;;;;;5069202;28;20032;-76